sensor_id;sensor_type;location;lat;lon;timestamp;P1;durP1;ratioP1;P2;durP2;ratioP2
25948;SDS011;13961;51.178;4.448;2023-02-01T00:01:59;14.57;;;5.13;;
25948;SDS011;13961;51.178;4.448;2023-02-01T00:04:25;23.55;;;5.53;;
25948;SDS011;13961;51.178;4.448;2023-02-01T00:06:51;16.23;;;6.10;;
25948;SDS011;13961;51.178;4.448;2023-02-01T00:09:17;16.48;;;5.30;;
25948;SDS011;13961;51.178;4.448;2023-02-01T00:11:43;15.93;;;4.57;;
25948;SDS011;13961;51.178;4.448;2023-02-01T00:14:08;22.55;;;6.20;;
25948;SDS011;13961;51.178;4.448;2023-02-01T00:16:34;20.88;;;5.22;;
25948;SDS011;13961;51.178;4.448;2023-02-01T00:19:02;18.35;;;5.70;;
25948;SDS011;13961;51.178;4.448;2023-02-01T00:21:29;24.02;;;4.68;;
25948;SDS011;13961;51.178;4.448;2023-02-01T00:23:55;20.67;;;5.30;;
25948;SDS011;13961;51.178;4.448;2023-02-01T00:26:37;21.60;;;4.85;;
25948;SDS011;13961;51.178;4.448;2023-02-01T00:29:15;19.02;;;5.22;;
25948;SDS011;13961;51.178;4.448;2023-02-01T00:31:42;21.40;;;4.60;;
25948;SDS011;13961;51.178;4.448;2023-02-01T00:34:13;19.30;;;5.55;;
25948;SDS011;13961;51.178;4.448;2023-02-01T00:36:40;24.48;;;6.20;;
25948;SDS011;13961;51.178;4.448;2023-02-01T00:39:07;20.45;;;5.97;;
25948;SDS011;13961;51.178;4.448;2023-02-01T00:41:33;24.30;;;5.95;;
25948;SDS011;13961;51.178;4.448;2023-02-01T00:43:59;25.33;;;6.10;;
25948;SDS011;13961;51.178;4.448;2023-02-01T00:46:25;19.15;;;4.57;;
25948;SDS011;13961;51.178;4.448;2023-02-01T00:48:51;20.10;;;5.57;;
25948;SDS011;13961;51.178;4.448;2023-02-01T00:51:18;24.27;;;5.50;;
25948;SDS011;13961;51.178;4.448;2023-02-01T00:53:46;15.73;;;5.28;;
25948;SDS011;13961;51.178;4.448;2023-02-01T00:56:12;17.88;;;5.78;;
25948;SDS011;13961;51.178;4.448;2023-02-01T00:58:38;27.65;;;6.40;;
25948;SDS011;13961;51.178;4.448;2023-02-01T01:01:09;21.98;;;5.65;;
25948;SDS011;13961;51.178;4.448;2023-02-01T01:03:39;15.93;;;4.65;;
25948;SDS011;13961;51.178;4.448;2023-02-01T01:06:11;22.75;;;5.45;;
25948;SDS011;13961;51.178;4.448;2023-02-01T01:08:41;11.48;;;3.10;;
25948;SDS011;13961;51.178;4.448;2023-02-01T01:11:15;18.67;;;5.15;;
25948;SDS011;13961;51.178;4.448;2023-02-01T01:13:43;19.70;;;5.70;;
25948;SDS011;13961;51.178;4.448;2023-02-01T01:16:11;16.42;;;4.88;;
25948;SDS011;13961;51.178;4.448;2023-02-01T01:18:37;17.77;;;5.00;;
25948;SDS011;13961;51.178;4.448;2023-02-01T01:21:06;18.10;;;4.90;;
25948;SDS011;13961;51.178;4.448;2023-02-01T01:23:32;28.25;;;5.65;;
25948;SDS011;13961;51.178;4.448;2023-02-01T01:25:59;20.85;;;4.85;;
25948;SDS011;13961;51.178;4.448;2023-02-01T01:28:25;17.92;;;4.88;;
25948;SDS011;13961;51.178;4.448;2023-02-01T01:30:51;22.00;;;4.68;;
25948;SDS011;13961;51.178;4.448;2023-02-01T01:33:17;18.33;;;4.97;;
25948;SDS011;13961;51.178;4.448;2023-02-01T01:35:42;21.27;;;4.15;;
25948;SDS011;13961;51.178;4.448;2023-02-01T01:38:09;17.63;;;3.80;;
25948;SDS011;13961;51.178;4.448;2023-02-01T01:40:36;14.95;;;4.30;;
25948;SDS011;13961;51.178;4.448;2023-02-01T01:43:01;14.80;;;3.20;;
25948;SDS011;13961;51.178;4.448;2023-02-01T01:45:28;18.55;;;4.05;;
25948;SDS011;13961;51.178;4.448;2023-02-01T01:47:57;13.88;;;3.45;;
25948;SDS011;13961;51.178;4.448;2023-02-01T01:50:32;17.40;;;3.65;;
25948;SDS011;13961;51.178;4.448;2023-02-01T01:53:02;14.98;;;3.53;;
25948;SDS011;13961;51.178;4.448;2023-02-01T01:55:32;11.88;;;2.80;;
25948;SDS011;13961;51.178;4.448;2023-02-01T01:58:02;17.35;;;3.70;;
25948;SDS011;13961;51.178;4.448;2023-02-01T02:00:30;22.13;;;3.13;;
25948;SDS011;13961;51.178;4.448;2023-02-01T02:03:02;17.77;;;2.88;;
25948;SDS011;13961;51.178;4.448;2023-02-01T02:05:33;11.13;;;2.35;;
25948;SDS011;13961;51.178;4.448;2023-02-01T02:08:00;21.42;;;2.92;;
25948;SDS011;13961;51.178;4.448;2023-02-01T02:10:27;14.55;;;3.08;;
25948;SDS011;13961;51.178;4.448;2023-02-01T02:13:11;13.10;;;2.58;;
25948;SDS011;13961;51.178;4.448;2023-02-01T02:15:41;15.02;;;3.78;;
25948;SDS011;13961;51.178;4.448;2023-02-01T02:18:19;8.57;;;2.72;;
25948;SDS011;13961;51.178;4.448;2023-02-01T02:21:14;14.82;;;3.00;;
25948;SDS011;13961;51.178;4.448;2023-02-01T02:27:02;18.40;;;3.10;;
25948;SDS011;13961;51.178;4.448;2023-02-01T02:35:41;16.42;;;3.30;;
25948;SDS011;13961;51.178;4.448;2023-02-01T02:38:30;15.27;;;3.03;;
25948;SDS011;13961;51.178;4.448;2023-02-01T02:44:09;11.48;;;2.72;;
25948;SDS011;13961;51.178;4.448;2023-02-01T02:47:07;16.85;;;3.80;;
25948;SDS011;13961;51.178;4.448;2023-02-01T02:49:50;11.15;;;2.63;;
25948;SDS011;13961;51.178;4.448;2023-02-01T02:53:02;18.95;;;3.38;;
25948;SDS011;13961;51.178;4.448;2023-02-01T02:55:52;13.65;;;2.72;;
25948;SDS011;13961;51.178;4.448;2023-02-01T02:58:36;14.70;;;3.33;;
25948;SDS011;13961;51.178;4.448;2023-02-01T03:01:20;13.35;;;3.20;;
25948;SDS011;13961;51.178;4.448;2023-02-01T03:04:04;12.00;;;3.65;;
25948;SDS011;13961;51.178;4.448;2023-02-01T03:06:33;21.15;;;3.20;;
25948;SDS011;13961;51.178;4.448;2023-02-01T03:08:59;16.98;;;3.05;;
25948;SDS011;13961;51.178;4.448;2023-02-01T03:11:29;11.13;;;3.08;;
25948;SDS011;13961;51.178;4.448;2023-02-01T03:14:15;14.07;;;2.95;;
25948;SDS011;13961;51.178;4.448;2023-02-01T03:16:47;16.55;;;3.03;;
25948;SDS011;13961;51.178;4.448;2023-02-01T03:19:23;13.88;;;2.60;;
25948;SDS011;13961;51.178;4.448;2023-02-01T03:24:34;18.58;;;3.00;;
25948;SDS011;13961;51.178;4.448;2023-02-01T03:27:08;14.45;;;2.55;;
25948;SDS011;13961;51.178;4.448;2023-02-01T03:29:54;17.10;;;3.30;;
25948;SDS011;13961;51.178;4.448;2023-02-01T03:32:26;18.58;;;3.13;;
25948;SDS011;13961;51.178;4.448;2023-02-01T03:34:53;18.75;;;2.47;;
25948;SDS011;13961;51.178;4.448;2023-02-01T03:37:25;13.40;;;2.55;;
25948;SDS011;13961;51.178;4.448;2023-02-01T03:42:45;15.93;;;2.78;;
25948;SDS011;13961;51.178;4.448;2023-02-01T03:47:46;9.68;;;2.20;;
25948;SDS011;13961;51.178;4.448;2023-02-01T03:50:18;16.70;;;2.90;;
25948;SDS011;13961;51.178;4.448;2023-02-01T03:52:54;21.08;;;2.92;;
25948;SDS011;13961;51.178;4.448;2023-02-01T03:55:28;7.70;;;2.20;;
25948;SDS011;13961;51.178;4.448;2023-02-01T03:58:01;12.70;;;2.20;;
25948;SDS011;13961;51.178;4.448;2023-02-01T04:00:26;11.13;;;2.05;;
25948;SDS011;13961;51.178;4.448;2023-02-01T04:02:52;11.43;;;2.50;;
25948;SDS011;13961;51.178;4.448;2023-02-01T04:05:19;12.85;;;2.75;;
25948;SDS011;13961;51.178;4.448;2023-02-01T04:07:45;12.48;;;2.10;;
25948;SDS011;13961;51.178;4.448;2023-02-01T04:10:11;10.27;;;2.45;;
25948;SDS011;13961;51.178;4.448;2023-02-01T04:12:37;17.80;;;3.08;;
25948;SDS011;13961;51.178;4.448;2023-02-01T04:15:05;11.30;;;2.45;;
25948;SDS011;13961;51.178;4.448;2023-02-01T04:17:31;11.93;;;2.70;;
25948;SDS011;13961;51.178;4.448;2023-02-01T04:19:57;10.40;;;2.60;;
25948;SDS011;13961;51.178;4.448;2023-02-01T04:22:23;17.25;;;3.40;;
25948;SDS011;13961;51.178;4.448;2023-02-01T04:24:48;13.18;;;2.92;;
25948;SDS011;13961;51.178;4.448;2023-02-01T04:27:15;15.18;;;2.80;;
25948;SDS011;13961;51.178;4.448;2023-02-01T04:29:43;19.02;;;3.40;;
25948;SDS011;13961;51.178;4.448;2023-02-01T04:32:10;15.15;;;2.58;;
25948;SDS011;13961;51.178;4.448;2023-02-01T04:34:36;15.07;;;3.33;;
25948;SDS011;13961;51.178;4.448;2023-02-01T04:37:02;16.02;;;2.90;;
25948;SDS011;13961;51.178;4.448;2023-02-01T04:39:28;8.80;;;2.33;;
25948;SDS011;13961;51.178;4.448;2023-02-01T04:41:53;14.15;;;2.58;;
25948;SDS011;13961;51.178;4.448;2023-02-01T04:44:19;14.68;;;2.67;;
25948;SDS011;13961;51.178;4.448;2023-02-01T04:46:45;18.10;;;3.20;;
25948;SDS011;13961;51.178;4.448;2023-02-01T04:49:12;15.32;;;3.03;;
25948;SDS011;13961;51.178;4.448;2023-02-01T04:51:39;16.15;;;2.67;;
25948;SDS011;13961;51.178;4.448;2023-02-01T04:54:05;14.30;;;3.30;;
25948;SDS011;13961;51.178;4.448;2023-02-01T04:56:31;13.13;;;3.00;;
25948;SDS011;13961;51.178;4.448;2023-02-01T04:58:57;27.33;;;2.95;;
25948;SDS011;13961;51.178;4.448;2023-02-01T05:01:22;17.35;;;3.45;;
25948;SDS011;13961;51.178;4.448;2023-02-01T05:03:49;15.45;;;2.75;;
25948;SDS011;13961;51.178;4.448;2023-02-01T05:06:15;11.70;;;2.85;;
25948;SDS011;13961;51.178;4.448;2023-02-01T05:08:41;12.30;;;2.75;;
25948;SDS011;13961;51.178;4.448;2023-02-01T05:11:06;14.18;;;3.00;;
25948;SDS011;13961;51.178;4.448;2023-02-01T05:13:52;19.52;;;3.08;;
25948;SDS011;13961;51.178;4.448;2023-02-01T05:16:18;19.30;;;3.53;;
25948;SDS011;13961;51.178;4.448;2023-02-01T05:18:43;16.20;;;2.95;;
25948;SDS011;13961;51.178;4.448;2023-02-01T05:21:09;15.00;;;3.45;;
25948;SDS011;13961;51.178;4.448;2023-02-01T05:23:35;16.05;;;2.38;;
25948;SDS011;13961;51.178;4.448;2023-02-01T05:26:20;16.52;;;3.10;;
25948;SDS011;13961;51.178;4.448;2023-02-01T05:28:46;15.18;;;2.78;;
25948;SDS011;13961;51.178;4.448;2023-02-01T05:31:12;18.88;;;3.53;;
25948;SDS011;13961;51.178;4.448;2023-02-01T05:33:37;15.00;;;3.42;;
25948;SDS011;13961;51.178;4.448;2023-02-01T05:36:03;18.35;;;2.97;;
25948;SDS011;13961;51.178;4.448;2023-02-01T05:38:29;17.92;;;4.13;;
25948;SDS011;13961;51.178;4.448;2023-02-01T05:40:56;13.68;;;2.65;;
25948;SDS011;13961;51.178;4.448;2023-02-01T05:43:21;14.35;;;2.60;;
25948;SDS011;13961;51.178;4.448;2023-02-01T05:45:47;20.58;;;2.97;;
25948;SDS011;13961;51.178;4.448;2023-02-01T05:48:13;18.90;;;3.90;;
25948;SDS011;13961;51.178;4.448;2023-02-01T05:50:38;17.63;;;3.10;;
25948;SDS011;13961;51.178;4.448;2023-02-01T05:53:04;20.33;;;3.03;;
25948;SDS011;13961;51.178;4.448;2023-02-01T05:55:31;16.17;;;3.15;;
25948;SDS011;13961;51.178;4.448;2023-02-01T05:57:56;22.25;;;2.90;;
25948;SDS011;13961;51.178;4.448;2023-02-01T06:00:22;14.52;;;3.20;;
25948;SDS011;13961;51.178;4.448;2023-02-01T06:02:48;12.43;;;2.75;;
25948;SDS011;13961;51.178;4.448;2023-02-01T06:05:14;21.00;;;2.88;;
25948;SDS011;13961;51.178;4.448;2023-02-01T06:07:40;16.58;;;2.63;;
25948;SDS011;13961;51.178;4.448;2023-02-01T06:10:05;17.52;;;3.35;;
25948;SDS011;13961;51.178;4.448;2023-02-01T06:12:31;17.10;;;2.97;;
25948;SDS011;13961;51.178;4.448;2023-02-01T06:14:57;22.45;;;3.20;;
25948;SDS011;13961;51.178;4.448;2023-02-01T06:17:24;13.38;;;3.03;;
25948;SDS011;13961;51.178;4.448;2023-02-01T06:19:50;8.20;;;2.65;;
25948;SDS011;13961;51.178;4.448;2023-02-01T06:22:15;19.58;;;3.28;;
25948;SDS011;13961;51.178;4.448;2023-02-01T06:24:41;12.65;;;2.50;;
25948;SDS011;13961;51.178;4.448;2023-02-01T06:27:07;15.15;;;2.33;;
25948;SDS011;13961;51.178;4.448;2023-02-01T06:29:35;16.10;;;2.92;;
25948;SDS011;13961;51.178;4.448;2023-02-01T06:32:01;18.00;;;2.83;;
25948;SDS011;13961;51.178;4.448;2023-02-01T06:34:28;17.98;;;3.25;;
25948;SDS011;13961;51.178;4.448;2023-02-01T06:36:53;17.27;;;2.78;;
25948;SDS011;13961;51.178;4.448;2023-02-01T06:39:19;19.13;;;3.40;;
25948;SDS011;13961;51.178;4.448;2023-02-01T06:41:48;18.13;;;3.13;;
25948;SDS011;13961;51.178;4.448;2023-02-01T06:44:14;12.85;;;3.55;;
25948;SDS011;13961;51.178;4.448;2023-02-01T06:46:40;15.82;;;2.90;;
25948;SDS011;13961;51.178;4.448;2023-02-01T06:49:06;23.02;;;3.65;;
25948;SDS011;13961;51.178;4.448;2023-02-01T06:51:32;16.45;;;2.97;;
25948;SDS011;13961;51.178;4.448;2023-02-01T06:53:58;22.13;;;3.20;;
25948;SDS011;13961;51.178;4.448;2023-02-01T06:56:25;16.60;;;3.10;;
25948;SDS011;13961;51.178;4.448;2023-02-01T06:58:51;18.48;;;3.38;;
25948;SDS011;13961;51.178;4.448;2023-02-01T07:01:17;14.75;;;2.78;;
25948;SDS011;13961;51.178;4.448;2023-02-01T07:03:43;21.05;;;3.75;;
25948;SDS011;13961;51.178;4.448;2023-02-01T07:06:12;15.63;;;3.13;;
25948;SDS011;13961;51.178;4.448;2023-02-01T07:08:38;18.38;;;2.92;;
25948;SDS011;13961;51.178;4.448;2023-02-01T07:11:07;16.55;;;3.13;;
25948;SDS011;13961;51.178;4.448;2023-02-01T07:13:34;25.58;;;3.22;;
25948;SDS011;13961;51.178;4.448;2023-02-01T07:16:01;21.70;;;3.40;;
25948;SDS011;13961;51.178;4.448;2023-02-01T07:18:28;12.55;;;2.83;;
25948;SDS011;13961;51.178;4.448;2023-02-01T07:20:54;22.98;;;3.42;;
25948;SDS011;13961;51.178;4.448;2023-02-01T07:23:21;11.75;;;2.70;;
25948;SDS011;13961;51.178;4.448;2023-02-01T07:25:47;14.38;;;2.72;;
25948;SDS011;13961;51.178;4.448;2023-02-01T07:28:13;19.10;;;3.28;;
25948;SDS011;13961;51.178;4.448;2023-02-01T07:30:39;15.65;;;2.75;;
25948;SDS011;13961;51.178;4.448;2023-02-01T07:33:06;20.75;;;2.83;;
25948;SDS011;13961;51.178;4.448;2023-02-01T07:35:32;21.17;;;3.47;;
25948;SDS011;13961;51.178;4.448;2023-02-01T07:37:57;12.73;;;3.17;;
25948;SDS011;13961;51.178;4.448;2023-02-01T07:40:24;26.23;;;3.28;;
25948;SDS011;13961;51.178;4.448;2023-02-01T07:42:54;19.05;;;2.88;;
25948;SDS011;13961;51.178;4.448;2023-02-01T07:45:21;24.13;;;3.15;;
25948;SDS011;13961;51.178;4.448;2023-02-01T07:47:47;18.13;;;3.30;;
25948;SDS011;13961;51.178;4.448;2023-02-01T07:50:13;23.90;;;3.60;;
25948;SDS011;13961;51.178;4.448;2023-02-01T07:52:38;16.55;;;3.05;;
25948;SDS011;13961;51.178;4.448;2023-02-01T07:55:05;18.58;;;3.78;;
25948;SDS011;13961;51.178;4.448;2023-02-01T07:57:32;15.43;;;3.97;;
25948;SDS011;13961;51.178;4.448;2023-02-01T07:59:57;12.23;;;3.22;;
25948;SDS011;13961;51.178;4.448;2023-02-01T08:02:42;22.13;;;3.15;;
25948;SDS011;13961;51.178;4.448;2023-02-01T08:05:07;20.50;;;3.20;;
25948;SDS011;13961;51.178;4.448;2023-02-01T08:07:34;13.65;;;3.15;;
25948;SDS011;13961;51.178;4.448;2023-02-01T08:10:00;20.90;;;2.97;;
25948;SDS011;13961;51.178;4.448;2023-02-01T08:12:25;17.25;;;3.58;;
25948;SDS011;13961;51.178;4.448;2023-02-01T08:14:52;13.48;;;3.08;;
25948;SDS011;13961;51.178;4.448;2023-02-01T08:17:19;13.63;;;2.90;;
25948;SDS011;13961;51.178;4.448;2023-02-01T08:19:45;11.73;;;2.67;;
25948;SDS011;13961;51.178;4.448;2023-02-01T08:22:10;17.88;;;3.03;;
25948;SDS011;13961;51.178;4.448;2023-02-01T08:24:36;10.13;;;2.90;;
25948;SDS011;13961;51.178;4.448;2023-02-01T08:27:04;22.05;;;3.20;;
25948;SDS011;13961;51.178;4.448;2023-02-01T08:29:30;13.10;;;2.80;;
25948;SDS011;13961;51.178;4.448;2023-02-01T08:31:56;15.85;;;3.30;;
25948;SDS011;13961;51.178;4.448;2023-02-01T08:34:22;15.80;;;3.30;;
25948;SDS011;13961;51.178;4.448;2023-02-01T08:36:48;24.38;;;4.40;;
25948;SDS011;13961;51.178;4.448;2023-02-01T08:39:13;19.08;;;3.13;;
25948;SDS011;13961;51.178;4.448;2023-02-01T08:41:39;17.80;;;3.65;;
25948;SDS011;13961;51.178;4.448;2023-02-01T08:44:07;19.13;;;3.63;;
25948;SDS011;13961;51.178;4.448;2023-02-01T08:46:32;17.73;;;3.38;;
25948;SDS011;13961;51.178;4.448;2023-02-01T08:48:58;20.30;;;3.45;;
25948;SDS011;13961;51.178;4.448;2023-02-01T08:51:25;16.40;;;3.17;;
25948;SDS011;13961;51.178;4.448;2023-02-01T08:53:51;17.92;;;2.90;;
25948;SDS011;13961;51.178;4.448;2023-02-01T08:56:17;15.85;;;3.40;;
25948;SDS011;13961;51.178;4.448;2023-02-01T08:58:44;15.98;;;3.38;;
25948;SDS011;13961;51.178;4.448;2023-02-01T09:01:10;15.15;;;2.75;;
25948;SDS011;13961;51.178;4.448;2023-02-01T09:03:37;16.10;;;3.38;;
25948;SDS011;13961;51.178;4.448;2023-02-01T09:06:04;16.30;;;3.05;;
25948;SDS011;13961;51.178;4.448;2023-02-01T09:08:32;17.60;;;3.95;;
25948;SDS011;13961;51.178;4.448;2023-02-01T09:10:59;18.50;;;4.03;;
25948;SDS011;13961;51.178;4.448;2023-02-01T09:13:25;14.95;;;3.67;;
25948;SDS011;13961;51.178;4.448;2023-02-01T09:15:51;16.10;;;3.20;;
25948;SDS011;13961;51.178;4.448;2023-02-01T09:18:17;22.95;;;3.72;;
25948;SDS011;13961;51.178;4.448;2023-02-01T09:20:42;21.45;;;4.00;;
25948;SDS011;13961;51.178;4.448;2023-02-01T09:23:08;21.15;;;3.30;;
25948;SDS011;13961;51.178;4.448;2023-02-01T09:25:36;16.83;;;3.17;;
25948;SDS011;13961;51.178;4.448;2023-02-01T09:28:03;14.85;;;3.35;;
25948;SDS011;13961;51.178;4.448;2023-02-01T09:30:31;19.58;;;4.22;;
25948;SDS011;13961;51.178;4.448;2023-02-01T09:32:57;21.02;;;3.30;;
25948;SDS011;13961;51.178;4.448;2023-02-01T09:35:23;16.77;;;3.42;;
25948;SDS011;13961;51.178;4.448;2023-02-01T09:37:48;16.08;;;3.35;;
25948;SDS011;13961;51.178;4.448;2023-02-01T09:40:15;16.38;;;3.17;;
25948;SDS011;13961;51.178;4.448;2023-02-01T09:48:26;19.63;;;2.97;;
25948;SDS011;13961;51.178;4.448;2023-02-01T09:50:57;16.25;;;2.53;;
25948;SDS011;13961;51.178;4.448;2023-02-01T09:53:37;13.60;;;3.47;;
25948;SDS011;13961;51.178;4.448;2023-02-01T09:56:11;14.30;;;3.38;;
25948;SDS011;13961;51.178;4.448;2023-02-01T09:58:44;11.18;;;3.53;;
25948;SDS011;13961;51.178;4.448;2023-02-01T10:01:21;9.93;;;2.97;;
25948;SDS011;13961;51.178;4.448;2023-02-01T10:03:49;17.17;;;3.03;;
25948;SDS011;13961;51.178;4.448;2023-02-01T10:11:45;15.30;;;2.63;;
25948;SDS011;13961;51.178;4.448;2023-02-01T10:28:42;13.18;;;2.40;;
25948;SDS011;13961;51.178;4.448;2023-02-01T10:31:13;11.32;;;2.38;;
25948;SDS011;13961;51.178;4.448;2023-02-01T10:33:43;11.90;;;3.70;;
25948;SDS011;13961;51.178;4.448;2023-02-01T10:36:16;16.25;;;2.78;;
25948;SDS011;13961;51.178;4.448;2023-02-01T10:38:48;9.23;;;2.30;;
25948;SDS011;13961;51.178;4.448;2023-02-01T10:41:15;16.95;;;3.10;;
25948;SDS011;13961;51.178;4.448;2023-02-01T10:43:43;17.10;;;2.17;;
25948;SDS011;13961;51.178;4.448;2023-02-01T10:46:11;16.50;;;2.42;;
25948;SDS011;13961;51.178;4.448;2023-02-01T10:48:37;15.27;;;3.53;;
25948;SDS011;13961;51.178;4.448;2023-02-01T10:53:58;7.55;;;1.67;;
25948;SDS011;13961;51.178;4.448;2023-02-01T10:56:28;9.63;;;1.65;;
25948;SDS011;13961;51.178;4.448;2023-02-01T10:59:05;8.43;;;1.90;;
25948;SDS011;13961;51.178;4.448;2023-02-01T11:01:41;13.48;;;2.05;;
25948;SDS011;13961;51.178;4.448;2023-02-01T11:04:10;5.82;;;1.50;;
25948;SDS011;13961;51.178;4.448;2023-02-01T11:06:39;6.80;;;1.27;;
25948;SDS011;13961;51.178;4.448;2023-02-01T11:11:32;9.07;;;1.30;;
25948;SDS011;13961;51.178;4.448;2023-02-01T11:14:17;6.40;;;1.50;;
25948;SDS011;13961;51.178;4.448;2023-02-01T11:16:52;8.07;;;1.20;;
25948;SDS011;13961;51.178;4.448;2023-02-01T11:19:38;11.70;;;1.70;;
25948;SDS011;13961;51.178;4.448;2023-02-01T11:22:05;14.23;;;1.65;;
25948;SDS011;13961;51.178;4.448;2023-02-01T11:24:32;12.60;;;1.80;;
25948;SDS011;13961;51.178;4.448;2023-02-01T11:27:05;13.18;;;1.77;;
25948;SDS011;13961;51.178;4.448;2023-02-01T11:29:47;10.18;;;1.65;;
25948;SDS011;13961;51.178;4.448;2023-02-01T11:32:17;11.93;;;1.73;;
25948;SDS011;13961;51.178;4.448;2023-02-01T11:34:46;13.57;;;2.25;;
25948;SDS011;13961;51.178;4.448;2023-02-01T11:37:24;10.82;;;2.25;;
25948;SDS011;13961;51.178;4.448;2023-02-01T11:40:00;10.48;;;1.45;;
25948;SDS011;13961;51.178;4.448;2023-02-01T11:42:28;6.07;;;1.10;;
25948;SDS011;13961;51.178;4.448;2023-02-01T11:47:42;13.27;;;1.98;;
25948;SDS011;13961;51.178;4.448;2023-02-01T11:50:19;15.02;;;1.70;;
25948;SDS011;13961;51.178;4.448;2023-02-01T12:03:49;9.85;;;1.40;;
25948;SDS011;13961;51.178;4.448;2023-02-01T12:06:28;11.00;;;1.75;;
25948;SDS011;13961;51.178;4.448;2023-02-01T12:12:12;9.07;;;1.90;;
25948;SDS011;13961;51.178;4.448;2023-02-01T12:17:51;5.45;;;1.52;;
25948;SDS011;13961;51.178;4.448;2023-02-01T12:31:24;9.80;;;1.50;;
25948;SDS011;13961;51.178;4.448;2023-02-01T12:36:43;9.07;;;1.58;;
25948;SDS011;13961;51.178;4.448;2023-02-01T12:39:37;5.80;;;1.25;;
25948;SDS011;13961;51.178;4.448;2023-02-01T12:47:59;10.45;;;1.50;;
25948;SDS011;13961;51.178;4.448;2023-02-01T12:50:50;9.32;;;1.50;;
25948;SDS011;13961;51.178;4.448;2023-02-01T12:53:32;9.43;;;1.65;;
25948;SDS011;13961;51.178;4.448;2023-02-01T12:56:08;4.38;;;1.40;;
25948;SDS011;13961;51.178;4.448;2023-02-01T13:03:55;13.27;;;2.10;;
25948;SDS011;13961;51.178;4.448;2023-02-01T13:06:42;7.75;;;1.05;;
25948;SDS011;13961;51.178;4.448;2023-02-01T13:11:45;6.05;;;1.30;;
25948;SDS011;13961;51.178;4.448;2023-02-01T13:17:04;8.85;;;1.90;;
25948;SDS011;13961;51.178;4.448;2023-02-01T13:19:49;10.30;;;1.83;;
25948;SDS011;13961;51.178;4.448;2023-02-01T13:22:22;7.75;;;1.63;;
25948;SDS011;13961;51.178;4.448;2023-02-01T13:24:59;8.02;;;1.50;;
25948;SDS011;13961;51.178;4.448;2023-02-01T13:27:28;11.75;;;1.80;;
25948;SDS011;13961;51.178;4.448;2023-02-01T13:30:00;6.70;;;1.15;;
25948;SDS011;13961;51.178;4.448;2023-02-01T13:32:55;15.75;;;2.25;;
25948;SDS011;13961;51.178;4.448;2023-02-01T13:41:22;8.43;;;1.45;;
25948;SDS011;13961;51.178;4.448;2023-02-01T13:43:55;8.82;;;1.52;;
25948;SDS011;13961;51.178;4.448;2023-02-01T13:46:28;11.57;;;1.60;;
25948;SDS011;13961;51.178;4.448;2023-02-01T13:48:55;10.27;;;1.65;;
25948;SDS011;13961;51.178;4.448;2023-02-01T13:51:45;6.20;;;1.33;;
25948;SDS011;13961;51.178;4.448;2023-02-01T13:54:27;9.02;;;1.50;;
25948;SDS011;13961;51.178;4.448;2023-02-01T13:57:04;9.25;;;1.83;;
25948;SDS011;13961;51.178;4.448;2023-02-01T14:05:11;10.17;;;1.53;;
25948;SDS011;13961;51.178;4.448;2023-02-01T14:48:38;8.20;;;1.48;;
25948;SDS011;13961;51.178;4.448;2023-02-01T14:55:40;13.88;;;1.90;;
25948;SDS011;13961;51.178;4.448;2023-02-01T15:01:32;11.82;;;2.05;;
25948;SDS011;13961;51.178;4.448;2023-02-01T15:06:46;12.32;;;1.98;;
25948;SDS011;13961;51.178;4.448;2023-02-01T15:09:19;9.02;;;1.70;;
25948;SDS011;13961;51.178;4.448;2023-02-01T15:11:59;11.65;;;1.83;;
25948;SDS011;13961;51.178;4.448;2023-02-01T15:14:34;25.83;;;2.65;;
25948;SDS011;13961;51.178;4.448;2023-02-01T15:17:27;14.00;;;2.20;;
25948;SDS011;13961;51.178;4.448;2023-02-01T15:22:51;20.75;;;2.63;;
25948;SDS011;13961;51.178;4.448;2023-02-01T15:25:31;11.23;;;1.85;;
25948;SDS011;13961;51.178;4.448;2023-02-01T15:28:01;12.95;;;2.15;;
25948;SDS011;13961;51.178;4.448;2023-02-01T15:30:27;12.05;;;2.45;;
25948;SDS011;13961;51.178;4.448;2023-02-01T15:36:09;15.93;;;2.35;;
25948;SDS011;13961;51.178;4.448;2023-02-01T15:38:41;18.45;;;2.88;;
25948;SDS011;13961;51.178;4.448;2023-02-01T15:41:09;14.25;;;2.00;;
25948;SDS011;13961;51.178;4.448;2023-02-01T15:44:11;13.77;;;2.20;;
25948;SDS011;13961;51.178;4.448;2023-02-01T15:46:47;12.23;;;2.17;;
25948;SDS011;13961;51.178;4.448;2023-02-01T15:49:23;13.18;;;2.30;;
25948;SDS011;13961;51.178;4.448;2023-02-01T15:51:50;14.75;;;2.15;;
25948;SDS011;13961;51.178;4.448;2023-02-01T15:54:22;12.02;;;2.05;;
25948;SDS011;13961;51.178;4.448;2023-02-01T15:57:09;15.00;;;2.70;;
25948;SDS011;13961;51.178;4.448;2023-02-01T15:59:37;11.70;;;2.42;;
25948;SDS011;13961;51.178;4.448;2023-02-01T16:02:25;17.23;;;3.03;;
25948;SDS011;13961;51.178;4.448;2023-02-01T16:05:04;15.25;;;2.30;;
25948;SDS011;13961;51.178;4.448;2023-02-01T16:08:00;17.80;;;2.50;;
25948;SDS011;13961;51.178;4.448;2023-02-01T16:10:30;22.73;;;2.90;;
25948;SDS011;13961;51.178;4.448;2023-02-01T16:13:02;17.45;;;3.08;;
25948;SDS011;13961;51.178;4.448;2023-02-01T16:15:28;9.02;;;2.22;;
25948;SDS011;13961;51.178;4.448;2023-02-01T16:17:56;17.40;;;3.67;;
25948;SDS011;13961;51.178;4.448;2023-02-01T16:20:22;12.13;;;2.42;;
25948;SDS011;13961;51.178;4.448;2023-02-01T16:22:48;14.68;;;2.58;;
25948;SDS011;13961;51.178;4.448;2023-02-01T16:25:13;10.65;;;2.20;;
25948;SDS011;13961;51.178;4.448;2023-02-01T16:27:39;16.65;;;2.55;;
25948;SDS011;13961;51.178;4.448;2023-02-01T16:30:05;9.65;;;2.70;;
25948;SDS011;13961;51.178;4.448;2023-02-01T16:32:34;12.05;;;2.40;;
25948;SDS011;13961;51.178;4.448;2023-02-01T16:35:03;14.63;;;2.60;;
25948;SDS011;13961;51.178;4.448;2023-02-01T16:37:30;11.85;;;2.53;;
25948;SDS011;13961;51.178;4.448;2023-02-01T16:39:58;16.55;;;3.08;;
25948;SDS011;13961;51.178;4.448;2023-02-01T16:42:24;12.75;;;2.50;;
25948;SDS011;13961;51.178;4.448;2023-02-01T16:44:49;19.05;;;2.85;;
25948;SDS011;13961;51.178;4.448;2023-02-01T16:47:19;12.30;;;2.50;;
25948;SDS011;13961;51.178;4.448;2023-02-01T16:49:46;16.75;;;3.10;;
25948;SDS011;13961;51.178;4.448;2023-02-01T16:52:21;14.45;;;2.65;;
25948;SDS011;13961;51.178;4.448;2023-02-01T16:54:48;12.00;;;2.65;;
25948;SDS011;13961;51.178;4.448;2023-02-01T16:57:16;16.88;;;2.63;;
25948;SDS011;13961;51.178;4.448;2023-02-01T16:59:43;12.07;;;2.47;;
25948;SDS011;13961;51.178;4.448;2023-02-01T17:02:13;12.55;;;2.38;;
25948;SDS011;13961;51.178;4.448;2023-02-01T17:04:41;11.50;;;2.92;;
25948;SDS011;13961;51.178;4.448;2023-02-01T17:07:09;11.98;;;2.55;;
25948;SDS011;13961;51.178;4.448;2023-02-01T17:09:43;11.23;;;2.72;;
25948;SDS011;13961;51.178;4.448;2023-02-01T17:12:23;12.43;;;2.38;;
25948;SDS011;13961;51.178;4.448;2023-02-01T17:14:52;15.13;;;2.38;;
25948;SDS011;13961;51.178;4.448;2023-02-01T17:17:19;20.08;;;2.88;;
25948;SDS011;13961;51.178;4.448;2023-02-01T17:19:49;10.00;;;2.67;;
25948;SDS011;13961;51.178;4.448;2023-02-01T17:22:18;14.00;;;2.58;;
25948;SDS011;13961;51.178;4.448;2023-02-01T17:24:45;17.35;;;3.33;;
25948;SDS011;13961;51.178;4.448;2023-02-01T17:27:10;15.35;;;2.67;;
25948;SDS011;13961;51.178;4.448;2023-02-01T17:29:36;9.82;;;2.33;;
25948;SDS011;13961;51.178;4.448;2023-02-01T17:32:02;15.23;;;2.97;;
25948;SDS011;13961;51.178;4.448;2023-02-01T17:34:29;13.18;;;2.60;;
25948;SDS011;13961;51.178;4.448;2023-02-01T17:36:55;16.60;;;3.40;;
25948;SDS011;13961;51.178;4.448;2023-02-01T17:39:21;14.43;;;2.30;;
25948;SDS011;13961;51.178;4.448;2023-02-01T17:42:08;12.90;;;2.60;;
25948;SDS011;13961;51.178;4.448;2023-02-01T17:44:36;17.35;;;2.47;;